Time,TemperatureF,DewpointF,PressureIn,WindDirection,WindDirectionDegrees,WindSpeedMPH,WindSpeedGustMPH,Humidity,HourlyPrecipIn,Conditions,Clouds,dailyrainin,SoftwareType,DateUTC
2013-01-26 00:00:00,35.1,35.1,30.23,WNW,289,6.0,11.0,100,0.00,,---,0.00,VWS V14.00,2013-01-26 05:00:00,
2013-01-26 00:01:00,35.1,35.1,30.23,WNW,303,6.0,9.0,100,0.00,,---,0.00,VWS V14.00,2013-01-26 05:01:00,
2013-01-26 00:06:00,35.1,35.1,30.23,WNW,303,7.0,9.0,100,0.00,,---,0.00,VWS V14.00,2013-01-26 05:06:00,
2013-01-26 00:11:00,35.1,35.1,30.23,NW,306,7.0,9.0,100,0.00,,---,0.00,VWS V14.00,2013-01-26 05:11:00,
2013-01-26 00:16:00,35.1,35.1,30.23,NW,313,8.0,12.0,100,0.00,,---,0.00,VWS V14.00,2013-01-26 05:16:00,
2013-01-26 00:21:00,35.1,35.1,30.23,NW,305,7.0,12.0,100,0.00,,---,0.00,VWS V14.00,2013-01-26 05:21:00,
2013-01-26 00:26:00,35.1,35.1,30.23,WNW,299,6.0,12.0,100,0.00,,---,0.00,VWS V14.00,2013-01-26 05:26:00,
2013-01-26 00:31:00,35.1,35.1,30.23,WNW,302,7.0,10.0,100,0.00,,---,0.00,VWS V14.00,2013-01-26 05:31:00,
2013-01-26 00:36:00,35.0,35.0,30.22,NW,309,8.0,11.0,100,0.00,,---,0.00,VWS V14.00,2013-01-26 05:36:00,
2013-01-26 00:41:00,34.9,34.9,30.23,NW,311,7.0,11.0,100,0.00,,---,0.00,VWS V14.00,2013-01-26 05:41:00,
2013-01-26 00:46:00,34.8,34.8,30.22,NW,311,6.0,11.0,100,0.00,,---,0.00,VWS V14.00,2013-01-26 05:46:00,
2013-01-26 00:51:00,34.7,34.7,30.22,NW,307,10.0,11.0,100,0.00,,---,0.00,VWS V14.00,2013-01-26 05:51:00,
2013-01-26 00:56:00,34.6,34.6,30.22,NW,314,9.0,12.0,100,0.00,,---,0.00,VWS V14.00,2013-01-26 05:56:00,
2013-01-26 01:01:00,34.5,34.5,30.22,NW,325,9.0,10.0,100,0.00,,---,0.00,VWS V14.00,2013-01-26 06:01:00,
2013-01-26 01:06:00,34.4,34.4,30.22,NW,311,6.0,11.0,100,0.00,,---,0.00,VWS V14.00,2013-01-26 06:06:00,
2013-01-26 01:11:00,34.3,34.3,30.22,NW,315,7.0,11.0,100,0.00,,---,0.00,VWS V14.00,2013-01-26 06:11:00,
2013-01-26 01:16:00,34.2,34.2,30.22,NW,319,11.0,12.0,100,0.00,,---,0.00,VWS V14.00,2013-01-26 06:16:00,
2013-01-26 01:21:00,34.1,34.1,30.22,NW,304,8.0,12.0,100,0.00,,---,0.00,VWS V14.00,2013-01-26 06:21:00,
2013-01-26 01:26:00,34.1,34.1,30.22,WNW,302,7.0,12.0,100,0.00,,---,0.00,VWS V14.00,2013-01-26 06:26:00,
2013-01-26 01:31:00,34.1,34.1,30.22,NW,306,10.0,11.0,100,0.00,,---,0.00,VWS V14.00,2013-01-26 06:31:00,
2013-01-26 01:36:00,34.1,34.1,30.22,WNW,300,8.0,11.0,100,0.00,,---,0.00,VWS V14.00,2013-01-26 06:36:00,
2013-01-26 01:41:00,34.1,34.1,30.22,NW,305,6.0,11.0,100,0.00,,---,0.00,VWS V14.00,2013-01-26 06:41:00,
2013-01-26 01:46:00,34.0,34.0,30.22,WNW,299,8.0,12.0,100,0.00,,---,0.00,VWS V14.00,2013-01-26 06:46:00,
2013-01-26 01:51:00,34.0,34.0,30.22,NW,305,9.0,13.0,100,0.00,,---,0.00,VWS V14.00,2013-01-26 06:51:00,
2013-01-26 01:56:00,33.9,33.9,30.22,NW,305,8.0,13.0,100,0.00,,---,0.00,VWS V14.00,2013-01-26 06:56:00,
2013-01-26 02:01:00,33.9,33.9,30.22,NW,319,6.0,10.0,100,0.00,,---,0.00,VWS V14.00,2013-01-26 07:01:00,
2013-01-26 02:06:00,33.9,33.9,30.22,NNW,327,8.0,11.0,100,0.00,,---,0.00,VWS V14.00,2013-01-26 07:06:00,
2013-01-26 02:11:00,33.8,33.8,30.22,NW,320,9.0,13.0,100,0.00,,---,0.00,VWS V14.00,2013-01-26 07:11:00,
2013-01-26 02:16:00,33.7,33.7,30.21,NW,315,14.0,14.0,100,0.00,,---,0.00,VWS V14.00,2013-01-26 07:16:00,
2013-01-26 02:21:00,33.7,33.7,30.21,NW,325,12.0,14.0,100,0.00,,---,0.00,VWS V14.00,2013-01-26 07:21:00,
2013-01-26 02:26:00,33.6,33.6,30.22,NW,322,10.0,14.0,100,0.00,,---,0.00,VWS V14.00,2013-01-26 07:26:00,
2013-01-26 02:31:00,33.5,33.5,30.22,NW,320,11.0,11.0,100,0.00,,---,0.00,VWS V14.00,2013-01-26 07:31:00,
2013-01-26 02:36:00,33.4,33.4,30.21,NW,326,7.0,12.0,100,0.00,,---,0.00,VWS V14.00,2013-01-26 07:36:00,
2013-01-26 02:41:00,33.3,33.3,30.21,NNW,330,8.0,12.0,100,0.00,,---,0.00,VWS V14.00,2013-01-26 07:41:00,
2013-01-26 02:46:00,33.2,33.2,30.21,NW,324,8.0,12.0,100,0.00,,---,0.00,VWS V14.00,2013-01-26 07:46:00,
2013-01-26 02:51:00,33.1,33.1,30.21,NNW,332,7.0,12.0,100,0.00,,---,0.00,VWS V14.00,2013-01-26 07:51:00,
2013-01-26 02:56:00,33.0,33.0,30.21,NW,317,6.0,12.0,100,0.00,,---,0.00,VWS V14.00,2013-01-26 07:56:00,
2013-01-26 03:01:00,32.8,32.8,30.21,NW,317,6.0,8.0,100,0.00,,---,0.00,VWS V14.00,2013-01-26 08:01:00,
2013-01-26 03:06:00,32.7,32.7,30.21,NW,316,7.0,10.0,100,0.00,,---,0.00,VWS V14.00,2013-01-26 08:06:00,
2013-01-26 03:11:00,32.7,32.7,30.21,WNW,299,6.0,10.0,100,0.00,,---,0.00,VWS V14.00,2013-01-26 08:11:00,
2013-01-26 03:16:00,32.7,32.7,30.21,WNW,294,6.0,10.0,100,0.00,,---,0.00,VWS V14.00,2013-01-26 08:16:00,
2013-01-26 03:21:00,32.6,32.6,30.21,WNW,299,8.0,10.0,100,0.00,,---,0.00,VWS V14.00,2013-01-26 08:21:00,
2013-01-26 03:26:00,32.5,32.5,30.21,WNW,301,8.0,10.0,100,0.00,,---,0.00,VWS V14.00,2013-01-26 08:26:00,
2013-01-26 03:31:00,32.5,32.5,30.21,WNW,297,5.0,9.0,100,0.00,,---,0.00,VWS V14.00,2013-01-26 08:31:00,
2013-01-26 03:36:00,32.5,32.5,30.21,WNW,295,10.0,10.0,100,0.00,,---,0.00,VWS V14.00,2013-01-26 08:36:00,
2013-01-26 03:41:00,32.4,32.4,30.21,WNW,295,6.0,10.0,100,0.00,,---,0.00,VWS V14.00,2013-01-26 08:41:00,
2013-01-26 03:46:00,32.4,32.4,30.21,WNW,302,5.0,10.0,100,0.00,,---,0.00,VWS V14.00,2013-01-26 08:46:00,
2013-01-26 03:51:00,32.4,32.4,30.21,NW,307,6.0,10.0,100,0.00,,---,0.00,VWS V14.00,2013-01-26 08:51:00,
2013-01-26 03:56:00,32.4,32.4,30.22,WNW,294,8.0,10.0,100,0.00,,---,0.00,VWS V14.00,2013-01-26 08:56:00,
2013-01-26 04:01:00,32.5,32.5,30.22,WNW,298,8.0,8.0,100,0.00,,---,0.00,VWS V14.00,2013-01-26 09:01:00,
2013-01-26 04:06:00,32.5,32.5,30.22,NW,310,8.0,10.0,100,0.00,,---,0.00,VWS V14.00,2013-01-26 09:06:00,
2013-01-26 04:11:00,32.4,32.4,30.23,WNW,301,8.0,10.0,100,0.00,,---,0.00,VWS V14.00,2013-01-26 09:11:00,
2013-01-26 04:16:00,32.4,32.4,30.23,NW,310,9.0,10.0,100,0.00,,---,0.00,VWS V14.00,2013-01-26 09:16:00,
2013-01-26 04:22:00,32.4,32.4,30.23,WNW,294,8.0,10.0,100,0.00,,---,0.00,VWS V14.00,2013-01-26 09:22:00,
2013-01-26 04:27:00,32.4,32.4,30.23,WNW,290,7.0,10.0,100,0.00,,---,0.00,VWS V14.00,2013-01-26 09:27:00,
2013-01-26 04:31:00,32.4,32.4,30.23,WNW,302,8.0,8.0,100,0.00,,---,0.00,VWS V14.00,2013-01-26 09:31:00,
2013-01-26 04:36:00,32.3,32.3,30.23,NW,305,6.0,8.0,100,0.00,,---,0.00,VWS V14.00,2013-01-26 09:36:00,
2013-01-26 04:41:00,32.3,32.3,30.24,NW,304,6.0,9.0,100,0.00,,---,0.00,VWS V14.00,2013-01-26 09:41:00,
2013-01-26 04:46:00,32.3,32.3,30.23,NW,313,6.0,9.0,100,0.00,,---,0.00,VWS V14.00,2013-01-26 09:46:00,
2013-01-26 04:51:00,32.3,32.3,30.23,NW,324,9.0,10.0,100,0.00,,---,0.00,VWS V14.00,2013-01-26 09:51:00,
2013-01-26 04:56:00,32.2,32.2,30.23,NW,318,5.0,10.0,100,0.00,,---,0.00,VWS V14.00,2013-01-26 09:56:00,
2013-01-26 05:01:00,32.1,32.1,30.23,NW,325,6.0,7.0,100,0.00,,---,0.00,VWS V14.00,2013-01-26 10:01:00,
2013-01-26 05:06:00,32.0,32.0,30.23,NW,324,5.0,7.0,100,0.00,,---,0.00,VWS V14.00,2013-01-26 10:06:00,
2013-01-26 05:12:00,32.0,32.0,30.23,NNW,333,7.0,8.0,100,0.00,,---,0.00,VWS V14.00,2013-01-26 10:12:00,
2013-01-26 05:17:00,31.9,31.9,30.23,NNW,340,6.0,10.0,100,0.00,,---,0.00,VWS V14.00,2013-01-26 10:17:00,
2013-01-26 05:22:00,31.9,31.9,30.23,North,359,5.0,10.0,100,0.00,,---,0.00,VWS V14.00,2013-01-26 10:22:00,
2013-01-26 05:27:00,31.8,31.8,30.23,NNW,342,4.0,10.0,100,0.00,,---,0.00,VWS V14.00,2013-01-26 10:27:00,
2013-01-26 05:32:00,31.8,31.8,30.24,NNW,342,5.0,8.0,100,0.00,,---,0.00,VWS V14.00,2013-01-26 10:32:00,
2013-01-26 05:37:00,31.8,31.8,30.24,North,3,6.0,8.0,100,0.00,,---,0.00,VWS V14.00,2013-01-26 10:37:00,
2013-01-26 05:41:00,31.7,31.7,30.24,North,2,7.0,10.0,100,0.00,,---,0.00,VWS V14.00,2013-01-26 10:41:00,
2013-01-26 05:47:00,31.6,31.6,30.24,North,351,8.0,10.0,100,0.00,,---,0.00,VWS V14.00,2013-01-26 10:47:00,
2013-01-26 05:52:00,31.6,31.6,30.24,NNW,346,7.0,10.0,100,0.00,,---,0.00,VWS V14.00,2013-01-26 10:52:00,
2013-01-26 05:57:00,31.5,31.5,30.24,North,356,6.0,10.0,100,0.00,,---,0.00,VWS V14.00,2013-01-26 10:57:00,
2013-01-26 06:02:00,31.5,31.5,30.25,NNW,338,8.0,9.0,100,0.00,,---,0.00,VWS V14.00,2013-01-26 11:02:00,
2013-01-26 06:07:00,31.4,31.4,30.25,NNW,327,6.0,9.0,100,0.00,,---,0.00,VWS V14.00,2013-01-26 11:07:00,
2013-01-26 06:13:00,31.4,31.4,30.25,NNW,340,5.0,9.0,100,0.00,,---,0.00,VWS V14.00,2013-01-26 11:13:00,
2013-01-26 06:18:00,31.4,31.4,30.25,NNW,344,7.0,9.0,100,0.00,,---,0.00,VWS V14.00,2013-01-26 11:18:00,
2013-01-26 06:23:00,31.4,31.4,30.25,North,349,8.0,10.0,100,0.00,,---,0.00,VWS V14.00,2013-01-26 11:23:00,
2013-01-26 06:28:00,31.3,31.3,30.25,NNW,339,9.0,10.0,100,0.00,,---,0.00,VWS V14.00,2013-01-26 11:28:00,
2013-01-26 06:33:00,31.3,31.3,30.25,NNW,347,6.0,10.0,100,0.00,,---,0.00,VWS V14.00,2013-01-26 11:33:00,
2013-01-26 06:38:00,31.3,31.3,30.25,North,358,7.0,10.0,100,0.00,,---,0.00,VWS V14.00,2013-01-26 11:38:00,
2013-01-26 06:44:00,31.2,31.2,30.25,North,357,6.0,10.0,100,0.00,,---,0.00,VWS V14.00,2013-01-26 11:44:00,
2013-01-26 06:49:00,31.2,31.0,30.25,NNW,347,7.0,10.0,99,0.00,,---,0.00,VWS V14.00,2013-01-26 11:49:00,
2013-01-26 06:54:00,31.1,31.1,30.26,North,353,5.0,10.0,100,0.00,,---,0.00,VWS V14.00,2013-01-26 11:54:00,
2013-01-26 07:00:00,31.1,31.1,30.26,North,352,5.0,10.0,100,0.00,,---,0.00,VWS V14.00,2013-01-26 12:00:00,
2013-01-26 07:07:00,31.0,31.0,30.26,NNW,338,7.0,8.0,100,0.00,,---,0.00,VWS V14.00,2013-01-26 12:07:00,
2013-01-26 07:12:00,31.0,31.0,30.26,NNW,341,7.0,8.0,100,0.00,,---,0.00,VWS V14.00,2013-01-26 12:12:00,
2013-01-26 07:17:00,31.0,31.0,30.26,NNW,348,6.0,9.0,100,0.00,,---,0.00,VWS V14.00,2013-01-26 12:17:00,
2013-01-26 07:22:00,31.0,31.0,30.26,North,1,6.0,9.0,100,0.00,,---,0.00,VWS V14.00,2013-01-26 12:22:00,
2013-01-26 07:27:00,31.0,31.0,30.26,North,359,5.0,10.0,100,0.00,,---,0.00,VWS V14.00,2013-01-26 12:27:00,
2013-01-26 07:32:00,31.0,31.0,30.26,North,353,7.0,8.0,100,0.00,,---,0.00,VWS V14.00,2013-01-26 12:32:00,
2013-01-26 07:37:00,31.0,31.0,30.26,North,357,6.0,9.0,100,0.00,,---,0.00,VWS V14.00,2013-01-26 12:37:00,
2013-01-26 07:42:00,31.0,31.0,30.26,North,357,5.0,9.0,100,0.00,,---,0.00,VWS V14.00,2013-01-26 12:42:00,
2013-01-26 07:47:00,31.1,31.1,30.26,North,359,5.0,9.0,100,0.00,,---,0.00,VWS V14.00,2013-01-26 12:47:00,
2013-01-26 07:52:00,31.1,31.1,30.26,North,0,5.0,9.0,100,0.00,,---,0.00,VWS V14.00,2013-01-26 12:52:00,
2013-01-26 07:57:00,31.1,31.1,30.26,North,4,5.0,9.0,100,0.00,,---,0.00,VWS V14.00,2013-01-26 12:57:00,
2013-01-26 08:02:00,31.2,31.2,30.27,NNE,14,5.0,7.0,100,0.00,,---,0.00,VWS V14.00,2013-01-26 13:02:00,
2013-01-26 08:07:00,31.3,31.3,30.27,North,359,6.0,9.0,100,0.00,,---,0.00,VWS V14.00,2013-01-26 13:07:00,
2013-01-26 08:12:00,31.3,31.3,30.26,North,3,9.0,10.0,100,0.00,,---,0.00,VWS V14.00,2013-01-26 13:12:00,
2013-01-26 08:17:00,31.4,31.4,30.26,North,0,11.0,11.0,100,0.00,,---,0.00,VWS V14.00,2013-01-26 13:17:00,
2013-01-26 08:22:00,31.5,31.5,30.27,NNW,346,8.0,11.0,100,0.00,,---,0.00,VWS V14.00,2013-01-26 13:22:00,
2013-01-26 08:27:00,31.5,31.5,30.27,North,359,8.0,11.0,100,0.00,,---,0.00,VWS V14.00,2013-01-26 13:27:00,
2013-01-26 08:32:00,31.6,31.6,30.28,North,356,8.0,11.0,100,0.00,,---,0.00,VWS V14.00,2013-01-26 13:32:00,
2013-01-26 08:37:00,31.7,31.7,30.28,North,11,9.0,12.0,100,0.00,,---,0.00,VWS V14.00,2013-01-26 13:37:00,
2013-01-26 08:42:00,31.8,31.8,30.27,North,9,8.0,12.0,100,0.00,,---,0.00,VWS V14.00,2013-01-26 13:42:00,
2013-01-26 08:47:00,31.9,31.9,30.27,North,7,8.0,12.0,100,0.00,,---,0.00,VWS V14.00,2013-01-26 13:47:00,
2013-01-26 08:52:00,32.0,32.0,30.28,NNE,12,7.0,12.0,100,0.00,,---,0.00,VWS V14.00,2013-01-26 13:52:00,
2013-01-26 08:57:00,32.1,32.1,30.28,North,3,8.0,12.0,100,0.00,,---,0.00,VWS V14.00,2013-01-26 13:57:00,
2013-01-26 09:02:00,32.3,32.3,30.29,NNE,21,9.0,11.0,100,0.00,,---,0.00,VWS V14.00,2013-01-26 14:02:00,
2013-01-26 09:07:00,32.4,32.4,30.29,North,2,7.0,11.0,100,0.00,,---,0.00,VWS V14.00,2013-01-26 14:07:00,
2013-01-26 09:12:00,32.5,32.5,30.29,North,2,9.0,11.0,100,0.00,,---,0.00,VWS V14.00,2013-01-26 14:12:00,
2013-01-26 09:17:00,32.6,32.6,30.29,North,3,7.0,11.0,100,0.00,,---,0.00,VWS V14.00,2013-01-26 14:17:00,
2013-01-26 09:22:00,32.7,32.7,30.28,North,11,9.0,11.0,100,0.00,,---,0.00,VWS V14.00,2013-01-26 14:22:00,
2013-01-26 09:27:00,33.0,33.0,30.29,North,1,8.0,11.0,100,0.00,,---,0.00,VWS V14.00,2013-01-26 14:27:00,
2013-01-26 09:32:00,33.1,33.1,30.29,NNE,15,7.0,11.0,100,0.00,,---,0.00,VWS V14.00,2013-01-26 14:32:00,
2013-01-26 09:37:00,33.2,33.2,30.30,North,9,6.0,11.0,100,0.00,,---,0.00,VWS V14.00,2013-01-26 14:37:00,
2013-01-26 09:42:00,33.3,33.3,30.29,North,9,7.0,11.0,100,0.00,,---,0.00,VWS V14.00,2013-01-26 14:42:00,
2013-01-26 09:47:00,33.5,33.5,30.29,North,8,5.0,11.0,100,0.00,,---,0.00,VWS V14.00,2013-01-26 14:47:00,
2013-01-26 09:52:00,33.7,33.7,30.30,North,0,5.0,11.0,100,0.00,,---,0.00,VWS V14.00,2013-01-26 14:52:00,
2013-01-26 09:57:00,33.9,33.9,30.29,North,11,4.0,11.0,100,0.00,,---,0.00,VWS V14.00,2013-01-26 14:57:00,
2013-01-26 10:02:00,34.1,34.1,30.30,North,2,4.0,5.0,100,0.00,,---,0.00,VWS V14.00,2013-01-26 15:02:00,
2013-01-26 10:07:00,34.3,34.3,30.30,NNE,16,1.0,7.0,100,0.00,,---,0.00,VWS V14.00,2013-01-26 15:07:00,
2013-01-26 10:12:00,34.5,34.5,30.30,North,8,5.0,7.0,100,0.00,,---,0.00,VWS V14.00,2013-01-26 15:12:00,
2013-01-26 10:17:00,34.7,34.7,30.31,NE,34,5.0,7.0,100,0.00,,---,0.00,VWS V14.00,2013-01-26 15:17:00,
2013-01-26 10:22:00,35.0,35.0,30.31,NNE,30,4.0,7.0,100,0.00,,---,0.00,VWS V14.00,2013-01-26 15:22:00,
2013-01-26 10:27:00,35.2,35.2,30.31,NNE,28,6.0,8.0,100,0.00,,---,0.00,VWS V14.00,2013-01-26 15:27:00,
2013-01-26 10:32:00,35.5,35.5,30.31,NNE,13,7.0,10.0,100,0.00,,---,0.00,VWS V14.00,2013-01-26 15:32:00,
2013-01-26 10:37:00,35.8,35.8,30.30,NE,44,5.0,10.0,100,0.00,,---,0.00,VWS V14.00,2013-01-26 15:37:00,
2013-01-26 10:42:00,36.1,36.1,30.31,North,9,6.0,10.0,100,0.00,,---,0.00,VWS V14.00,2013-01-26 15:42:00,
2013-01-26 10:47:00,36.5,36.5,30.30,NE,38,6.0,10.0,100,0.00,,---,0.00,VWS V14.00,2013-01-26 15:47:00,
2013-01-26 10:52:00,36.7,36.7,30.30,NNE,30,3.0,10.0,100,0.00,,---,0.00,VWS V14.00,2013-01-26 15:52:00,
2013-01-26 10:57:00,37.0,37.0,30.30,North,2,6.0,10.0,100,0.00,,---,0.00,VWS V14.00,2013-01-26 15:57:00,
2013-01-26 11:02:00,37.2,37.0,30.30,NE,41,8.0,10.0,99,0.00,,---,0.00,VWS V14.00,2013-01-26 16:02:00,
2013-01-26 11:07:00,37.4,36.9,30.30,ENE,65,6.0,10.0,98,0.00,,---,0.00,VWS V14.00,2013-01-26 16:07:00,
2013-01-26 11:12:00,37.6,37.3,30.31,NNE,31,8.0,10.0,99,0.00,,---,0.00,VWS V14.00,2013-01-26 16:12:00,
2013-01-26 11:17:00,37.7,37.5,30.30,ENE,74,2.0,10.0,99,0.00,,---,0.00,VWS V14.00,2013-01-26 16:17:00,
2013-01-26 11:22:00,37.9,37.6,30.30,NNE,32,10.0,11.0,99,0.00,,---,0.00,VWS V14.00,2013-01-26 16:22:00,
2013-01-26 11:27:00,38.1,37.6,30.31,NE,43,6.0,11.0,98,0.00,,---,0.00,VWS V14.00,2013-01-26 16:27:00,
2013-01-26 11:32:00,38.1,37.3,30.31,NNE,22,7.0,11.0,97,0.00,,---,0.00,VWS V14.00,2013-01-26 16:32:00,
2013-01-26 11:37:00,38.1,37.3,30.31,NE,35,7.0,12.0,97,0.00,,---,0.00,VWS V14.00,2013-01-26 16:37:00,
2013-01-26 11:42:00,38.1,37.3,30.31,NE,42,8.0,14.0,97,0.00,,---,0.00,VWS V14.00,2013-01-26 16:42:00,
2013-01-26 11:47:00,38.0,37.2,30.31,NE,40,11.0,14.0,97,0.00,,---,0.00,VWS V14.00,2013-01-26 16:47:00,
2013-01-26 11:52:00,38.0,37.5,30.30,NNE,20,10.0,14.0,98,0.00,,---,0.00,VWS V14.00,2013-01-26 16:52:00,
2013-01-26 11:57:00,38.0,37.2,30.30,NNE,30,7.0,14.0,97,0.00,,---,0.00,VWS V14.00,2013-01-26 16:57:00,
2013-01-26 12:02:00,37.9,37.1,30.30,NE,36,5.0,9.0,97,0.00,,---,0.00,VWS V14.00,2013-01-26 17:02:00,
2013-01-26 12:07:00,38.0,37.2,30.30,NNE,33,6.0,9.0,97,0.00,,---,0.00,VWS V14.00,2013-01-26 17:07:00,
2013-01-26 12:12:00,38.1,37.3,30.29,NE,44,7.0,11.0,97,0.00,,---,0.00,VWS V14.00,2013-01-26 17:12:00,
2013-01-26 12:17:00,38.2,37.7,30.29,NE,37,5.0,11.0,98,0.00,,---,0.00,VWS V14.00,2013-01-26 17:17:00,
2013-01-26 12:22:00,38.2,37.7,30.29,NNE,21,10.0,12.0,98,0.00,,---,0.00,VWS V14.00,2013-01-26 17:22:00,
2013-01-26 12:27:00,38.2,37.4,30.29,NNE,12,6.0,14.0,97,0.00,,---,0.00,VWS V14.00,2013-01-26 17:27:00,
2013-01-26 12:32:00,38.2,37.7,30.29,NNE,24,10.0,12.0,98,0.00,,---,0.00,VWS V14.00,2013-01-26 17:32:00,
2013-01-26 12:37:00,38.3,37.8,30.29,North,0,9.0,12.0,98,0.00,,---,0.00,VWS V14.00,2013-01-26 17:37:00,
2013-01-26 12:42:00,38.4,37.9,30.29,North,355,8.0,13.0,98,0.00,,---,0.00,VWS V14.00,2013-01-26 17:42:00,
2013-01-26 12:47:00,38.4,37.9,30.30,NNE,25,8.0,13.0,98,0.00,,---,0.00,VWS V14.00,2013-01-26 17:47:00,
2013-01-26 12:52:00,38.3,37.5,30.29,NNE,22,14.0,14.0,97,0.00,,---,0.00,VWS V14.00,2013-01-26 17:52:00,
2013-01-26 12:57:00,38.1,37.1,30.29,North,1,8.0,14.0,96,0.00,,---,0.00,VWS V14.00,2013-01-26 17:57:00,
2013-01-26 13:02:00,38.1,37.3,30.29,North,2,8.0,11.0,97,0.00,,---,0.00,VWS V14.00,2013-01-26 18:02:00,
2013-01-26 13:07:00,38.0,37.2,30.29,North,7,9.0,12.0,97,0.00,,---,0.00,VWS V14.00,2013-01-26 18:07:00,
2013-01-26 13:12:00,37.9,37.4,30.29,North,359,6.0,12.0,98,0.00,,---,0.00,VWS V14.00,2013-01-26 18:12:00,
2013-01-26 13:17:00,37.9,37.4,30.30,North,1,8.0,12.0,98,0.00,,---,0.00,VWS V14.00,2013-01-26 18:17:00,
2013-01-26 13:22:00,38.0,38.0,30.30,North,1,7.0,12.0,100,0.00,,---,0.00,VWS V14.00,2013-01-26 18:22:00,
2013-01-26 13:27:00,37.8,37.3,30.30,NNE,12,6.0,12.0,98,0.00,,---,0.00,VWS V14.00,2013-01-26 18:27:00,
2013-01-26 13:32:00,37.8,37.5,30.30,North,358,8.0,11.0,99,0.00,,---,0.00,VWS V14.00,2013-01-26 18:32:00,
2013-01-26 13:37:00,37.7,37.2,30.30,North,3,2.0,12.0,98,0.00,,---,0.00,VWS V14.00,2013-01-26 18:37:00,
2013-01-26 13:42:00,37.7,37.5,30.30,NNE,18,10.0,14.0,99,0.00,,---,0.00,VWS V14.00,2013-01-26 18:42:00,
2013-01-26 13:47:00,37.6,36.8,30.29,NNE,14,4.0,14.0,97,0.00,,---,0.00,VWS V14.00,2013-01-26 18:47:00,
2013-01-26 13:52:00,37.8,37.3,30.29,NNE,28,6.0,14.0,98,0.00,,---,0.00,VWS V14.00,2013-01-26 18:52:00,
2013-01-26 13:57:00,37.8,37.3,30.28,NNE,14,4.0,14.0,98,0.00,,---,0.00,VWS V14.00,2013-01-26 18:57:00,
2013-01-26 14:02:00,38.1,37.6,30.28,North,357,5.0,9.0,98,0.00,,---,0.00,VWS V14.00,2013-01-26 19:02:00,
2013-01-26 14:07:00,38.3,38.3,30.28,North,1,4.0,10.0,100,0.00,,---,0.00,VWS V14.00,2013-01-26 19:07:00,
2013-01-26 14:12:00,38.7,38.7,30.28,NNE,21,8.0,10.0,100,0.00,,---,0.00,VWS V14.00,2013-01-26 19:12:00,
2013-01-26 14:17:00,38.8,38.8,30.28,North,4,9.0,11.0,100,0.00,,---,0.00,VWS V14.00,2013-01-26 19:17:00,
2013-01-26 14:22:00,38.9,38.9,30.28,NNE,24,8.0,13.0,100,0.00,,---,0.00,VWS V14.00,2013-01-26 19:22:00,
2013-01-26 14:27:00,38.8,38.5,30.27,NNE,15,9.0,13.0,99,0.00,,---,0.00,VWS V14.00,2013-01-26 19:27:00,
2013-01-26 14:32:00,38.9,38.6,30.28,North,0,6.0,11.0,99,0.00,,---,0.00,VWS V14.00,2013-01-26 19:32:00,
2013-01-26 14:37:00,39.1,39.1,30.28,North,357,8.0,12.0,100,0.00,,---,0.00,VWS V14.00,2013-01-26 19:37:00,
2013-01-26 14:42:00,39.1,39.1,30.28,NNW,343,10.0,12.0,100,0.00,,---,0.00,VWS V14.00,2013-01-26 19:42:00,
2013-01-26 14:47:00,38.9,38.4,30.29,North,4,8.0,13.0,98,0.00,,---,0.00,VWS V14.00,2013-01-26 19:47:00,
2013-01-26 14:52:00,38.6,37.8,30.28,North,357,11.0,13.0,97,0.00,,---,0.00,VWS V14.00,2013-01-26 19:52:00,
2013-01-26 14:57:00,38.4,37.9,30.29,North,0,4.0,13.0,98,0.00,,---,0.00,VWS V14.00,2013-01-26 19:57:00,
2013-01-26 15:02:00,38.3,37.8,30.29,North,8,11.0,13.0,98,0.00,,---,0.00,VWS V14.00,2013-01-26 20:02:00,
2013-01-26 15:07:00,38.0,37.7,30.29,NNW,345,10.0,13.0,99,0.00,,---,0.00,VWS V14.00,2013-01-26 20:07:00,
2013-01-26 15:12:00,37.7,37.2,30.29,North,0,11.0,13.0,98,0.00,,---,0.00,VWS V14.00,2013-01-26 20:12:00,
2013-01-26 15:17:00,37.6,37.1,30.29,North,1,8.0,13.0,98,0.00,,---,0.00,VWS V14.00,2013-01-26 20:17:00,
2013-01-26 15:22:00,37.4,36.9,30.30,North,6,11.0,13.0,98,0.00,,---,0.00,VWS V14.00,2013-01-26 20:22:00,
2013-01-26 15:27:00,37.1,36.6,30.30,North,350,8.0,13.0,98,0.00,,---,0.00,VWS V14.00,2013-01-26 20:27:00,
2013-01-26 15:32:00,37.1,36.8,30.30,NNE,26,7.0,10.0,99,0.00,,---,0.00,VWS V14.00,2013-01-26 20:32:00,
2013-01-26 15:37:00,37.0,36.5,30.30,NNE,24,8.0,10.0,98,0.00,,---,0.00,VWS V14.00,2013-01-26 20:37:00,
2013-01-26 15:42:00,36.9,36.1,30.30,North,6,11.0,11.0,97,0.00,,---,0.00,VWS V14.00,2013-01-26 20:42:00,
2013-01-26 15:47:00,36.7,35.9,30.31,North,0,4.0,11.0,97,0.00,,---,0.00,VWS V14.00,2013-01-26 20:47:00,
2013-01-26 15:52:00,36.7,35.9,30.31,NNE,31,9.0,11.0,97,0.00,,---,0.00,VWS V14.00,2013-01-26 20:52:00,
2013-01-26 15:57:00,36.7,36.2,30.31,North,350,6.0,11.0,98,0.00,,---,0.00,VWS V14.00,2013-01-26 20:57:00,
2013-01-26 16:02:00,36.6,36.3,30.30,North,359,5.0,9.0,99,0.00,,---,0.00,VWS V14.00,2013-01-26 21:02:00,
2013-01-26 16:07:00,36.6,36.3,30.31,North,359,6.0,12.0,99,0.00,,---,0.00,VWS V14.00,2013-01-26 21:07:00,
2013-01-26 16:12:00,36.5,36.2,30.31,North,358,10.0,14.0,99,0.00,,---,0.00,VWS V14.00,2013-01-26 21:12:00,
2013-01-26 16:17:00,36.4,35.9,30.31,North,1,7.0,14.0,98,0.00,,---,0.00,VWS V14.00,2013-01-26 21:17:00,
2013-01-26 16:22:00,36.3,36.0,30.32,North,352,8.0,14.0,99,0.00,,---,0.00,VWS V14.00,2013-01-26 21:22:00,
2013-01-26 16:27:00,36.2,36.2,30.32,North,9,8.0,14.0,100,0.00,,---,0.00,VWS V14.00,2013-01-26 21:27:00,
2013-01-26 16:32:00,36.0,35.8,30.32,North,6,12.0,12.0,99,0.00,,---,0.00,VWS V14.00,2013-01-26 21:32:00,
2013-01-26 16:37:00,35.9,35.7,30.33,North,8,9.0,14.0,99,0.00,,---,0.00,VWS V14.00,2013-01-26 21:37:00,
2013-01-26 16:42:00,35.7,35.2,30.32,NNE,13,8.0,14.0,98,0.00,,---,0.00,VWS V14.00,2013-01-26 21:42:00,
2013-01-26 16:47:00,35.6,35.3,30.33,North,357,10.0,14.0,99,0.00,,---,0.00,VWS V14.00,2013-01-26 21:47:00,
2013-01-26 16:52:00,35.6,35.6,30.33,North,1,7.0,14.0,100,0.00,,---,0.00,VWS V14.00,2013-01-26 21:52:00,
2013-01-26 16:57:00,35.4,35.4,30.33,NE,35,9.0,14.0,100,0.00,,---,0.00,VWS V14.00,2013-01-26 21:57:00,
2013-01-26 17:02:00,35.3,35.0,30.33,NNE,18,9.0,10.0,99,0.00,,---,0.00,VWS V14.00,2013-01-26 22:02:00,
2013-01-26 17:07:00,35.2,35.0,30.34,NNE,30,6.0,10.0,99,0.00,,---,0.00,VWS V14.00,2013-01-26 22:07:00,
2013-01-26 17:12:00,35.1,35.1,30.33,NNE,15,8.0,11.0,100,0.00,,---,0.00,VWS V14.00,2013-01-26 22:12:00,
2013-01-26 17:17:00,35.1,35.1,30.34,North,3,7.0,11.0,100,0.00,,---,0.00,VWS V14.00,2013-01-26 22:17:00,
2013-01-26 17:22:00,35.1,35.1,30.34,NNE,27,9.0,11.0,100,0.00,,---,0.00,VWS V14.00,2013-01-26 22:22:00,
2013-01-26 17:27:00,35.0,35.0,30.34,NNE,16,8.0,11.0,100,0.00,,---,0.00,VWS V14.00,2013-01-26 22:27:00,
2013-01-26 17:32:00,34.8,34.8,30.35,NNE,33,5.0,10.0,100,0.00,,---,0.00,VWS V14.00,2013-01-26 22:32:00,
2013-01-26 17:37:00,34.8,34.8,30.35,NNE,28,11.0,11.0,100,0.00,,---,0.00,VWS V14.00,2013-01-26 22:37:00,
2013-01-26 17:42:00,34.7,34.7,30.36,NNE,31,6.0,11.0,100,0.00,,---,0.00,VWS V14.00,2013-01-26 22:42:00,
2013-01-26 17:47:00,34.7,34.7,30.36,NNE,21,6.0,12.0,100,0.00,,---,0.00,VWS V14.00,2013-01-26 22:47:00,
2013-01-26 17:52:00,34.6,34.6,30.37,NNE,19,10.0,12.0,100,0.00,,---,0.00,VWS V14.00,2013-01-26 22:52:00,
2013-01-26 17:57:00,34.5,34.5,30.37,NNE,33,10.0,12.0,100,0.00,,---,0.00,VWS V14.00,2013-01-26 22:57:00,
2013-01-26 18:02:00,34.5,34.5,30.37,NNE,23,9.0,11.0,100,0.00,,---,0.00,VWS V14.00,2013-01-26 23:02:00,
2013-01-26 18:07:00,34.4,34.4,30.37,NNE,27,8.0,12.0,100,0.00,,---,0.00,VWS V14.00,2013-01-26 23:07:00,
2013-01-26 18:12:00,34.4,34.4,30.38,NE,34,9.0,13.0,100,0.00,,---,0.00,VWS V14.00,2013-01-26 23:12:00,
2013-01-26 18:17:00,34.3,34.3,30.38,NNE,33,11.0,13.0,100,0.00,,---,0.00,VWS V14.00,2013-01-26 23:17:00,
2013-01-26 18:22:00,34.2,34.2,30.38,NNE,21,12.0,15.0,100,0.00,,---,0.00,VWS V14.00,2013-01-26 23:22:00,
2013-01-26 18:27:00,34.2,34.2,30.39,NNE,13,9.0,15.0,100,0.00,,---,0.00,VWS V14.00,2013-01-26 23:27:00,
2013-01-26 18:32:00,34.1,34.1,30.39,NNE,14,8.0,11.0,100,0.00,,---,0.00,VWS V14.00,2013-01-26 23:32:00,
2013-01-26 18:37:00,34.1,34.1,30.39,NNE,15,9.0,12.0,100,0.00,,---,0.00,VWS V14.00,2013-01-26 23:37:00,
2013-01-26 18:42:00,34.1,34.1,30.39,North,0,9.0,12.0,100,0.00,,---,0.00,VWS V14.00,2013-01-26 23:42:00,
2013-01-26 18:47:00,34.2,34.2,30.39,North,10,7.0,13.0,100,0.00,,---,0.00,VWS V14.00,2013-01-26 23:47:00,
2013-01-26 18:52:00,34.1,34.1,30.39,NNE,21,15.0,15.0,100,0.00,,---,0.00,VWS V14.00,2013-01-26 23:52:00,
2013-01-26 18:57:00,33.9,33.9,30.39,NNE,23,10.0,15.0,100,0.00,,---,0.00,VWS V14.00,2013-01-26 23:57:00,
2013-01-26 19:02:00,33.9,33.9,30.39,North,5,11.0,13.0,100,0.00,,---,0.00,VWS V14.00,2013-01-27 00:02:00,
2013-01-26 19:06:00,34.0,34.0,30.39,North,0,9.0,13.0,100,0.00,,---,0.00,VWS V14.00,2013-01-27 00:06:00,
2013-01-26 19:12:00,34.0,34.0,30.40,North,6,8.0,13.0,100,0.00,,---,0.00,VWS V14.00,2013-01-27 00:12:00,
2013-01-26 19:17:00,34.0,34.0,30.39,North,10,7.0,13.0,100,0.00,,---,0.00,VWS V14.00,2013-01-27 00:17:00,
2013-01-26 19:22:00,34.0,34.0,30.39,NNE,18,9.0,13.0,100,0.00,,---,0.00,VWS V14.00,2013-01-27 00:22:00,
2013-01-26 19:27:00,34.0,34.0,30.40,North,3,9.0,13.0,100,0.00,,---,0.00,VWS V14.00,2013-01-27 00:27:00,
2013-01-26 19:32:00,34.0,34.0,30.40,NNE,15,7.0,10.0,100,0.00,,---,0.00,VWS V14.00,2013-01-27 00:32:00,
2013-01-26 19:37:00,33.9,33.9,30.40,NE,38,11.0,13.0,100,0.00,,---,0.00,VWS V14.00,2013-01-27 00:37:00,
2013-01-26 19:42:00,33.8,33.8,30.40,NE,39,11.0,13.0,100,0.00,,---,0.00,VWS V14.00,2013-01-27 00:42:00,
2013-01-26 19:47:00,33.7,33.7,30.40,NE,49,12.0,13.0,100,0.00,,---,0.00,VWS V14.00,2013-01-27 00:47:00,
2013-01-26 19:52:00,33.7,33.7,30.40,NE,47,8.0,13.0,100,0.00,,---,0.00,VWS V14.00,2013-01-27 00:52:00,
2013-01-26 19:57:00,33.6,33.6,30.40,NNE,24,10.0,13.0,100,0.00,,---,0.00,VWS V14.00,2013-01-27 00:57:00,
2013-01-26 20:02:00,33.6,33.6,30.40,NE,34,9.0,12.0,100,0.00,,---,0.00,VWS V14.00,2013-01-27 01:02:00,
2013-01-26 20:07:00,33.6,33.6,30.41,NNE,32,7.0,12.0,100,0.00,,---,0.00,VWS V14.00,2013-01-27 01:07:00,
2013-01-26 20:12:00,33.7,33.7,30.41,North,1,9.0,15.0,100,0.00,,---,0.00,VWS V14.00,2013-01-27 01:12:00,
2013-01-26 20:17:00,33.7,33.7,30.41,NNE,16,9.0,15.0,100,0.00,,---,0.00,VWS V14.00,2013-01-27 01:17:00,
2013-01-26 20:22:00,33.7,33.7,30.41,NNE,30,8.0,15.0,100,0.00,,---,0.00,VWS V14.00,2013-01-27 01:22:00,
2013-01-26 20:27:00,33.6,33.6,30.41,NNE,13,9.0,15.0,100,0.00,,---,0.00,VWS V14.00,2013-01-27 01:27:00,
2013-01-26 20:32:00,33.6,33.6,30.42,North,3,9.0,12.0,100,0.00,,---,0.00,VWS V14.00,2013-01-27 01:32:00,
2013-01-26 20:37:00,33.7,33.7,30.42,North,5,4.0,12.0,100,0.00,,---,0.00,VWS V14.00,2013-01-27 01:37:00,
2013-01-26 20:42:00,33.7,33.7,30.42,North,5,7.0,12.0,100,0.00,,---,0.00,VWS V14.00,2013-01-27 01:42:00,
2013-01-26 20:47:00,33.8,33.8,30.42,NNE,32,10.0,14.0,100,0.00,,---,0.00,VWS V14.00,2013-01-27 01:47:00,
2013-01-26 20:52:00,33.7,33.7,30.42,NNE,24,4.0,14.0,100,0.00,,---,0.00,VWS V14.00,2013-01-27 01:52:00,
2013-01-26 20:57:00,33.7,33.7,30.42,NNE,15,9.0,14.0,100,0.00,,---,0.00,VWS V14.00,2013-01-27 01:57:00,
2013-01-26 21:02:00,33.7,33.7,30.42,NNE,25,6.0,9.0,100,0.00,,---,0.00,VWS V14.00,2013-01-27 02:02:00,
2013-01-26 21:07:00,33.7,33.7,30.42,NNE,25,7.0,10.0,100,0.00,,---,0.00,VWS V14.00,2013-01-27 02:07:00,
2013-01-26 21:12:00,33.8,33.8,30.43,NNE,21,9.0,11.0,100,0.00,,---,0.00,VWS V14.00,2013-01-27 02:12:00,
2013-01-26 21:17:00,33.8,33.8,30.43,North,5,10.0,11.0,100,0.00,,---,0.00,VWS V14.00,2013-01-27 02:17:00,
2013-01-26 21:22:00,33.8,33.8,30.43,NE,39,7.0,12.0,100,0.00,,---,0.00,VWS V14.00,2013-01-27 02:22:00,
2013-01-26 21:27:00,33.8,33.8,30.44,NE,38,7.0,12.0,100,0.00,,---,0.00,VWS V14.00,2013-01-27 02:27:00,
2013-01-26 21:32:00,33.8,33.5,30.44,NNE,22,10.0,10.0,99,0.00,,---,0.00,VWS V14.00,2013-01-27 02:32:00,
2013-01-26 21:37:00,33.8,33.5,30.44,NE,46,6.0,13.0,99,0.00,,---,0.00,VWS V14.00,2013-01-27 02:37:00,
2013-01-26 21:42:00,33.8,33.5,30.44,NNE,25,6.0,13.0,99,0.00,,---,0.00,VWS V14.00,2013-01-27 02:42:00,
2013-01-26 21:47:00,33.8,33.5,30.44,NNE,20,6.0,13.0,99,0.00,,---,0.00,VWS V14.00,2013-01-27 02:47:00,
2013-01-26 21:52:00,33.9,33.9,30.44,North,9,11.0,13.0,100,0.00,,---,0.00,VWS V14.00,2013-01-27 02:52:00,
2013-01-26 21:57:00,33.9,33.7,30.44,NNE,18,9.0,14.0,99,0.00,,---,0.00,VWS V14.00,2013-01-27 02:57:00,
2013-01-26 22:02:00,33.9,33.7,30.44,NNE,21,11.0,11.0,99,0.00,,---,0.00,VWS V14.00,2013-01-27 03:02:00,
2013-01-26 22:07:00,33.9,33.9,30.44,NNE,26,10.0,12.0,100,0.00,,---,0.00,VWS V14.00,2013-01-27 03:07:00,
2013-01-26 22:12:00,33.9,33.9,30.45,NNE,12,9.0,13.0,100,0.00,,---,0.00,VWS V14.00,2013-01-27 03:12:00,
2013-01-26 22:17:00,34.0,34.0,30.45,NNE,12,10.0,13.0,100,0.00,,---,0.00,VWS V14.00,2013-01-27 03:17:00,
2013-01-26 22:22:00,34.0,34.0,30.45,NNE,13,7.0,13.0,100,0.00,,---,0.00,VWS V14.00,2013-01-27 03:22:00,
2013-01-26 22:27:00,34.0,34.0,30.45,North,354,9.0,13.0,100,0.00,,---,0.00,VWS V14.00,2013-01-27 03:27:00,
2013-01-26 22:32:00,34.0,34.0,30.45,North,8,7.0,9.0,100,0.00,,---,0.00,VWS V14.00,2013-01-27 03:32:00,
2013-01-26 22:37:00,34.1,33.8,30.46,NNE,17,9.0,11.0,99,0.00,,---,0.00,VWS V14.00,2013-01-27 03:37:00,
2013-01-26 22:42:00,34.1,34.1,30.46,North,11,7.0,11.0,100,0.00,,---,0.00,VWS V14.00,2013-01-27 03:42:00,
2013-01-26 22:47:00,34.1,33.8,30.46,NNE,27,7.0,12.0,99,0.00,,---,0.00,VWS V14.00,2013-01-27 03:47:00,
2013-01-26 22:52:00,34.1,34.1,30.47,NNE,19,7.0,12.0,100,0.00,,---,0.00,VWS V14.00,2013-01-27 03:52:00,
2013-01-26 22:57:00,34.2,34.2,30.47,NNE,27,8.0,12.0,100,0.00,,---,0.00,VWS V14.00,2013-01-27 03:57:00,
2013-01-26 23:02:00,34.2,34.0,30.47,NNE,33,9.0,11.0,99,0.00,,---,0.00,VWS V14.00,2013-01-27 04:02:00,
2013-01-26 23:07:00,34.2,34.2,30.47,North,11,12.0,14.0,100,0.00,,---,0.00,VWS V14.00,2013-01-27 04:07:00,
2013-01-26 23:12:00,34.2,34.2,30.47,NNE,16,9.0,15.0,100,0.00,,---,0.00,VWS V14.00,2013-01-27 04:12:00,
2013-01-26 23:17:00,34.3,34.3,30.47,North,5,10.0,15.0,100,0.00,,---,0.00,VWS V14.00,2013-01-27 04:17:00,
2013-01-26 23:22:00,34.3,34.3,30.47,NNE,12,9.0,15.0,100,0.00,,---,0.00,VWS V14.00,2013-01-27 04:22:00,
2013-01-26 23:27:00,34.2,34.0,30.47,North,10,9.0,15.0,99,0.00,,---,0.00,VWS V14.00,2013-01-27 04:27:00,
2013-01-26 23:32:00,34.2,34.2,30.47,North,7,8.0,13.0,100,0.00,,---,0.00,VWS V14.00,2013-01-27 04:32:00,
2013-01-26 23:37:00,34.1,34.1,30.47,NNE,18,5.0,13.0,100,0.00,,---,0.00,VWS V14.00,2013-01-27 04:37:00,
2013-01-26 23:42:00,34.0,33.8,30.47,North,6,8.0,13.0,99,0.00,,---,0.00,VWS V14.00,2013-01-27 04:42:00,
2013-01-26 23:47:00,33.9,33.7,30.47,North,11,10.0,13.0,99,0.00,,---,0.00,VWS V14.00,2013-01-27 04:47:00,
2013-01-26 23:52:00,33.9,33.9,30.48,North,8,7.0,13.0,100,0.00,,---,0.00,VWS V14.00,2013-01-27 04:52:00,
2013-01-26 23:57:00,33.8,33.8,30.48,North,8,7.0,13.0,100,0.00,,---,0.00,VWS V14.00,2013-01-27 04:57:00,